Time;durP1;ratioP1;P1;durP2;ratioP2;P2;SDS_P1;SDS_P2;PMS_P1;PMS_P2;Temp;Humidity;BMP_temperature;BMP_pressure;BME280_temperature;BME280_humidity;BME280_pressure;Samples;Min_cycle;Max_cycle;Signal;HPM_P1;HPM_P2
2022/04/19 00:01:53;;;;;;;12.93;5.70;;;;;;;-144.47;49.50;53350.69;5078456;28;20127;-68
2022/04/19 00:04:19;;;;;;;10.85;5.22;;;;;;;-144.47;49.80;53326.84;5062529;28;20442;-67
2022/04/19 00:06:44;;;;;;;12.13;5.45;;;;;;;-144.47;49.34;53322.88;5072987;28;20027;-68
2022/04/19 00:09:10;;;;;;;17.88;5.55;;;;;;;-144.47;49.61;53334.78;5066317;28;20028;-69
2022/04/19 00:11:35;;;;;;;17.30;6.05;;;;;;;-144.47;49.68;53330.81;5075625;28;20485;-65
2022/04/19 00:14:00;;;;;;;10.50;4.93;;;;;;;-144.47;49.59;53368.56;5066881;28;20503;-69
2022/04/19 00:16:25;;;;;;;13.05;5.03;;;;;;;-144.47;49.74;53324.84;5081022;28;20044;-67
2022/04/19 00:18:51;;;;;;;11.65;4.72;;;;;;;-144.47;49.44;53352.66;5078282;28;20020;-69
2022/04/19 00:21:18;;;;;;;9.80;4.97;;;;;;;-144.47;49.25;53352.66;5065035;28;20128;-68
2022/04/19 00:23:46;;;;;;;11.35;5.03;;;;;;;-144.47;49.31;53342.72;5077987;28;20044;-66
2022/04/19 00:26:11;;;;;;;11.00;4.90;;;;;;;-144.47;49.29;53338.75;5061230;28;20527;-68
2022/04/19 00:28:37;;;;;;;9.20;4.40;;;;;;;-144.47;49.67;53358.63;5078574;28;20091;-69
2022/04/19 00:31:05;;;;;;;12.10;4.43;;;;;;;-144.47;49.31;53308.97;5078093;28;20504;-68
2022/04/19 00:33:31;;;;;;;7.57;3.88;;;;;;;-144.47;49.19;53372.53;5082732;28;20120;-69
2022/04/19 00:35:56;;;;;;;7.82;4.15;;;;;;;-144.47;49.08;53336.78;5083869;28;20397;-66
2022/04/19 00:38:22;;;;;;;9.45;4.22;;;;;;;-144.47;49.15;53310.94;5061302;28;20035;-68
2022/04/19 00:40:48;;;;;;;7.30;3.78;;;;;;;-144.47;48.71;53342.72;5086356;28;20120;-67
2022/04/19 00:43:16;;;;;;;7.20;3.90;;;;;;;-144.47;48.45;53378.50;5086985;28;20096;-67
2022/04/19 00:45:41;;;;;;;6.68;3.70;;;;;;;-144.47;48.75;53330.81;5073863;28;20514;-67
2022/04/19 00:48:07;;;;;;;6.40;3.53;;;;;;;-144.47;48.46;53316.91;5063893;28;20032;-67
2022/04/19 00:50:32;;;;;;;6.85;3.72;;;;;;;-144.47;48.36;53320.88;5077912;28;20146;-68
2022/04/19 00:52:58;;;;;;;7.10;3.67;;;;;;;-144.47;48.36;53344.72;5074759;28;20174;-68
2022/04/19 00:55:24;;;;;;;6.95;3.35;;;;;;;-144.47;48.40;53340.75;5079866;28;20028;-67
2022/04/19 00:57:50;;;;;;;8.18;3.47;;;;;;;-144.47;48.43;53360.63;5075877;28;20470;-68
2022/04/19 01:00:16;;;;;;;9.23;3.70;;;;;;;-144.47;48.31;53350.69;5081983;28;20024;-67
2022/04/19 01:02:42;;;;;;;6.75;3.10;;;;;;;-144.47;48.18;53326.84;5078015;28;20047;-68
2022/04/19 01:05:08;;;;;;;8.50;3.55;;;;;;;-144.47;47.59;53350.69;5082707;28;20028;-66
2022/04/19 01:07:36;;;;;;;7.72;3.40;;;;;;;-144.47;47.56;53362.59;5086317;28;20058;-68
2022/04/19 01:10:02;;;;;;;7.43;3.20;;;;;;;-144.47;47.56;53306.97;5062303;28;20013;-68
2022/04/19 01:15:14;;;;;;;6.65;3.00;;;;;;;-144.47;47.65;53324.84;5080877;28;20058;-68
2022/04/19 01:17:41;;;;;;;5.35;2.80;;;;;;;-144.47;47.86;53326.84;5081536;28;20032;-69
2022/04/19 01:20:09;;;;;;;8.40;3.72;;;;;;;-144.47;47.88;53324.84;5072767;28;20055;-68
2022/04/19 01:22:36;;;;;;;6.63;3.17;;;;;;;-144.47;48.14;53312.94;5081793;28;20032;-68
2022/04/19 01:25:01;;;;;;;6.18;2.90;;;;;;;-144.47;48.21;53332.81;5061954;28;20027;-66
2022/04/19 01:27:26;;;;;;;6.50;3.17;;;;;;;-144.47;47.95;53360.63;5067050;28;20401;-66
2022/04/19 01:29:53;;;;;;;7.63;3.33;;;;;;;-144.47;48.10;53301.03;5077806;28;20039;-69
2022/04/19 01:32:20;;;;;;;6.95;2.97;;;;;;;-144.47;47.98;53348.69;5074824;28;20029;-67
2022/04/19 01:34:46;;;;;;;7.05;3.13;;;;;;;-144.47;47.98;53332.81;5079149;28;20032;-68
2022/04/19 01:37:12;;;;;;;8.68;2.90;;;;;;;-144.47;48.06;53310.94;5082923;28;20488;-69
2022/04/19 01:42:21;;;;;;;8.65;3.50;;;;;;;-144.47;47.37;53336.78;5083281;28;20034;-66
2022/04/19 01:44:47;;;;;;;8.80;4.20;;;;;;;-144.47;47.48;53285.13;5088581;28;20032;-67
2022/04/19 01:47:13;;;;;;;6.60;3.05;;;;;;;-144.47;47.29;53334.78;5089561;28;20039;-66
2022/04/19 01:49:38;;;;;;;6.43;2.63;;;;;;;-144.47;47.00;53336.78;5082684;28;20036;-68
2022/04/19 01:52:04;;;;;;;6.32;2.83;;;;;;;-144.47;46.98;53346.72;5083355;28;20385;-68
2022/04/19 01:54:30;;;;;;;6.55;2.50;;;;;;;-144.47;47.26;53328.81;5078019;28;20020;-66
2022/04/19 01:56:56;;;;;;;9.02;3.22;;;;;;;-144.47;47.64;53354.66;5084215;28;20017;-66
2022/04/19 01:59:21;;;;;;;9.15;3.50;;;;;;;-144.47;47.95;53328.81;5079732;28;20027;-65
2022/04/19 02:01:48;;;;;;;10.68;3.50;;;;;;;-144.47;48.25;53328.81;5086867;28;20050;-67
2022/04/19 02:04:14;;;;;;;8.13;3.33;;;;;;;-144.47;48.19;53332.81;5081213;28;20043;-67
2022/04/19 02:06:40;;;;;;;11.90;3.10;;;;;;;-144.47;47.58;53326.84;5064287;28;20469;-66
2022/04/19 02:09:05;;;;;;;6.82;2.75;;;;;;;-144.47;47.62;53326.84;5061194;28;20032;-69
2022/04/19 02:11:31;;;;;;;6.90;3.38;;;;;;;-144.47;47.40;53314.91;5086145;28;20028;-67
2022/04/19 02:13:56;;;;;;;7.40;3.00;;;;;;;-144.47;47.47;53346.72;5085100;28;20122;-68
2022/04/19 02:16:21;;;;;;;10.57;3.53;;;;;;;-144.47;47.92;53342.72;5087049;28;20476;-69
2022/04/19 02:18:48;;;;;;;10.57;3.28;;;;;;;-144.47;48.02;53340.75;5070379;28;20554;-68
2022/04/19 02:21:14;;;;;;;8.88;3.05;;;;;;;-144.47;47.84;53322.88;5087846;28;20116;-68
2022/04/19 02:23:39;;;;;;;7.22;2.75;;;;;;;-144.47;48.11;53324.84;5087524;28;20147;-66
2022/04/19 02:26:04;;;;;;;6.28;2.90;;;;;;;-144.47;48.06;53324.84;5080853;28;20450;-67
2022/04/19 02:28:31;;;;;;;8.07;3.40;;;;;;;-144.47;48.17;53303.00;5081126;28;20104;-67
2022/04/19 02:30:57;;;;;;;8.25;3.08;;;;;;;-144.47;48.29;53358.63;5087506;28;20020;-67
2022/04/19 02:33:23;;;;;;;7.55;3.65;;;;;;;-144.47;48.30;53322.88;5081830;28;20107;-67
2022/04/19 02:35:48;;;;;;;6.22;3.13;;;;;;;-144.47;48.57;53376.50;5088860;28;20528;-66
2022/04/19 02:38:14;;;;;;;7.63;2.78;;;;;;;-144.47;48.49;53350.69;5068427;28;20046;-67
2022/04/19 02:40:39;;;;;;;6.75;3.22;;;;;;;-144.47;48.93;53328.81;5076157;28;20032;-65
2022/04/19 02:43:05;;;;;;;7.13;3.17;;;;;;;-144.47;48.98;53346.72;5087025;28;20032;-67
2022/04/19 02:45:30;;;;;;;10.73;3.60;;;;;;;-144.47;49.04;53350.69;5086498;28;20013;-66
2022/04/19 02:48:04;;;;;;;6.53;3.20;;;;;;;-144.47;49.03;53344.72;5088555;28;20500;-67
2022/04/19 02:50:43;;;;;;;11.23;3.35;;;;;;;-144.47;49.13;53348.69;5085904;28;20417;-66
2022/04/19 02:53:09;;;;;;;7.95;3.30;;;;;;;-144.47;49.25;53334.78;5087466;28;20024;-66
2022/04/19 02:55:34;;;;;;;5.43;2.85;;;;;;;-144.47;49.49;53358.63;5081911;28;20047;-67
2022/04/19 02:57:59;;;;;;;9.13;3.33;;;;;;;-144.47;49.46;53342.72;5083493;28;20021;-66
2022/04/19 03:00:25;;;;;;;10.00;3.67;;;;;;;-144.47;49.61;53364.59;5084605;28;20110;-67
2022/04/19 03:02:51;;;;;;;7.60;3.38;;;;;;;-144.47;49.71;53328.81;5084920;28;20573;-65
2022/04/19 03:05:18;;;;;;;7.22;2.90;;;;;;;-144.47;49.46;53326.84;5084331;28;20036;-67
2022/04/19 03:07:43;;;;;;;8.85;3.03;;;;;;;-144.47;49.44;53308.97;5081293;28;20531;-67
2022/04/19 03:10:09;;;;;;;7.50;3.50;;;;;;;-144.47;49.58;53316.91;5083724;28;20096;-67
2022/04/19 03:12:34;;;;;;;6.05;2.78;;;;;;;-144.47;49.61;53344.72;5075527;28;20462;-67
2022/04/19 03:15:00;;;;;;;7.47;3.65;;;;;;;-144.47;49.53;53362.59;5066549;28;20428;-67
2022/04/19 03:17:26;;;;;;;6.28;2.65;;;;;;;-144.47;49.81;53324.84;5082604;28;20024;-66
2022/04/19 03:19:52;;;;;;;10.35;2.63;;;;;;;-144.47;49.92;53344.72;5076396;28;20056;-66
2022/04/19 03:22:17;;;;;;;7.22;3.10;;;;;;;-144.47;50.31;53312.94;5084457;28;20047;-67
2022/04/19 03:27:47;;;;;;;10.27;3.53;;;;;;;-144.47;50.47;53344.72;5085028;28;20047;-67
2022/04/19 03:30:15;;;;;;;10.05;3.30;;;;;;;-144.47;50.58;53380.47;5084350;28;20130;-68
2022/04/19 03:32:42;;;;;;;10.13;2.95;;;;;;;-144.47;50.22;53372.53;5080399;28;20034;-67
2022/04/19 03:35:08;;;;;;;10.57;3.70;;;;;;;-144.47;50.63;53336.78;5085239;28;20085;-66
2022/04/19 03:37:33;;;;;;;13.60;3.78;;;;;;;-144.47;51.19;53346.72;5059420;28;20122;-68
2022/04/19 03:39:58;;;;;;;7.22;3.70;;;;;;;-144.47;51.00;53354.66;5082018;28;20459;-66
2022/04/19 03:42:24;;;;;;;10.00;3.35;;;;;;;-144.47;50.96;53348.69;5081445;28;20472;-68
2022/04/19 03:44:50;;;;;;;9.70;3.45;;;;;;;-144.47;51.00;53340.75;5079362;28;20497;-68
2022/04/19 03:47:15;;;;;;;7.78;3.70;;;;;;;-144.47;51.06;53336.78;5087186;28;20047;-66
2022/04/19 03:49:43;;;;;;;8.80;3.55;;;;;;;-144.47;51.16;53368.56;5087230;28;20028;-68
2022/04/19 03:52:10;;;;;;;8.68;4.20;;;;;;;-144.47;51.65;53374.50;5079735;28;20490;-67
2022/04/19 03:54:37;;;;;;;10.55;3.83;;;;;;;-144.47;51.69;53344.72;5075460;28;20438;-66
2022/04/19 03:57:07;;;;;;;7.78;3.20;;;;;;;-144.47;51.36;53305.00;5081790;28;20070;-67
2022/04/19 03:59:34;;;;;;;12.57;3.95;;;;;;;-144.47;51.35;53340.75;5079280;28;20036;-66
2022/04/19 04:01:59;;;;;;;10.75;3.67;;;;;;;-144.47;51.71;53400.34;5086342;28;20032;-65
2022/04/19 04:04:30;;;;;;;9.57;3.20;;;;;;;-144.47;51.89;53346.72;5082501;28;20038;-67
2022/04/19 04:07:00;;;;;;;9.02;3.55;;;;;;;-144.47;51.45;53328.81;5072787;28;20020;-68
2022/04/19 04:09:32;;;;;;;8.45;3.13;;;;;;;-144.47;51.19;53330.81;5085961;28;20384;-66
2022/04/19 04:11:58;;;;;;;7.28;3.05;;;;;;;-144.47;50.98;53320.88;5081768;28;20539;-66
2022/04/19 04:14:24;;;;;;;7.80;3.08;;;;;;;-144.47;50.82;53356.63;5085887;28;20130;-67
2022/04/19 04:16:49;;;;;;;6.57;2.72;;;;;;;-144.47;50.72;53340.75;5077992;28;20054;-66
2022/04/19 04:19:14;;;;;;;7.75;2.80;;;;;;;-144.47;50.62;53305.00;5087159;28;20096;-67
2022/04/19 04:21:40;;;;;;;6.13;2.63;;;;;;;-144.47;50.36;53350.69;5080039;28;20024;-66
2022/04/19 04:24:05;;;;;;;11.75;3.33;;;;;;;-144.47;50.71;53312.94;5075907;28;20035;-67
2022/04/19 04:26:30;;;;;;;9.50;3.03;;;;;;;-144.47;50.03;53316.91;5068936;28;20020;-67
2022/04/19 04:28:56;;;;;;;6.03;2.42;;;;;;;-144.47;50.33;53334.78;5059209;28;20036;-67
2022/04/19 04:31:21;;;;;;;7.25;3.08;;;;;;;-144.47;50.46;53336.78;5076423;28;20082;-68
2022/04/19 04:33:46;;;;;;;8.18;2.85;;;;;;;-144.47;50.38;53328.81;5084899;28;20465;-68
2022/04/19 04:36:12;;;;;;;7.55;2.80;;;;;;;-144.47;50.43;53330.81;5079919;28;20417;-68
2022/04/19 04:38:37;;;;;;;7.40;3.42;;;;;;;-144.47;50.44;53328.81;5079371;28;20069;-66
2022/04/19 04:41:03;;;;;;;4.53;2.40;;;;;;;-144.47;50.71;53348.69;5087378;28;20120;-68
2022/04/19 04:43:28;;;;;;;8.82;3.00;;;;;;;-144.47;50.60;53318.91;5086716;28;20039;-66
2022/04/19 04:51:21;;;;;;;8.10;3.17;;;;;;;-144.47;51.02;53356.63;5082651;28;20033;-66
2022/04/19 04:53:46;;;;;;;7.30;3.20;;;;;;;-144.47;50.75;53344.72;5071760;28;20036;-67
2022/04/19 04:56:11;;;;;;;6.80;3.00;;;;;;;-144.47;50.20;53346.72;5084633;28;20028;-66
2022/04/19 04:58:37;;;;;;;9.98;3.13;;;;;;;-144.47;50.97;53364.59;5086227;28;20386;-68
2022/04/19 05:01:02;;;;;;;13.23;2.88;;;;;;;-144.47;50.97;53350.69;5067897;28;20085;-68
2022/04/19 05:03:27;;;;;;;7.55;3.10;;;;;;;-144.47;50.82;53330.81;5079165;28;20015;-67
2022/04/19 05:05:53;;;;;;;7.93;3.05;;;;;;;-144.47;50.97;53372.53;5080514;28;20033;-66
2022/04/19 05:08:21;;;;;;;10.95;3.33;;;;;;;-144.47;51.02;53336.78;5079153;28;20030;-67
2022/04/19 05:10:46;;;;;;;6.32;3.42;;;;;;;-144.47;51.17;53356.63;5078437;28;20048;-66
2022/04/19 05:13:12;;;;;;;7.80;3.70;;;;;;;-144.47;51.40;53346.72;5080485;28;20028;-67
2022/04/19 05:15:37;;;;;;;12.93;3.67;;;;;;;-144.47;51.21;53358.63;5082069;28;20036;-68
2022/04/19 05:18:02;;;;;;;10.32;3.53;;;;;;;-144.47;51.00;53332.81;5060379;28;20017;-68
2022/04/19 05:20:28;;;;;;;8.55;3.30;;;;;;;-144.47;51.09;53338.75;5077324;28;20488;-69
2022/04/19 05:22:53;;;;;;;9.02;2.90;;;;;;;-144.47;51.04;53352.66;5084011;28;20052;-66
2022/04/19 05:25:18;;;;;;;10.38;3.53;;;;;;;-144.47;50.90;53344.72;5079354;28;20044;-66
2022/04/19 05:27:44;;;;;;;7.78;3.63;;;;;;;-144.47;50.50;53332.81;5066420;28;20089;-67
2022/04/19 05:30:09;;;;;;;12.77;3.53;;;;;;;-144.47;50.53;53372.53;5081057;28;20086;-67
2022/04/19 05:32:35;;;;;;;12.82;3.75;;;;;;;-144.47;50.40;53354.66;5073840;28;20554;-68
2022/04/19 05:35:00;;;;;;;8.38;3.72;;;;;;;-144.47;50.35;53332.81;5080301;28;20358;-66
2022/04/19 05:37:26;;;;;;;9.85;3.50;;;;;;;-144.47;49.78;53320.88;5076781;28;20032;-68
2022/04/19 05:39:51;;;;;;;7.22;3.13;;;;;;;-144.47;49.99;53372.53;5083712;28;20020;-69
2022/04/19 05:42:16;;;;;;;7.70;3.50;;;;;;;-144.47;49.77;53346.72;5086423;28;20497;-68
2022/04/19 05:44:43;;;;;;;8.57;4.10;;;;;;;-144.47;49.56;53332.81;5077359;28;20037;-68
2022/04/19 05:47:09;;;;;;;10.60;3.38;;;;;;;-144.47;49.56;53340.75;5084939;28;20070;-69
2022/04/19 05:49:35;;;;;;;8.65;3.50;;;;;;;-144.47;48.81;53336.78;5078593;28;20117;-68
2022/04/19 05:52:01;;;;;;;8.05;3.50;;;;;;;-144.47;49.01;53376.50;5080684;28;20040;-68
2022/04/19 05:54:27;;;;;;;8.18;3.33;;;;;;;-144.47;49.36;53334.78;5075588;28;20086;-68
2022/04/19 05:56:52;;;;;;;8.00;3.83;;;;;;;-144.47;48.92;53316.91;5083491;28;20029;-68
2022/04/19 05:59:17;;;;;;;11.32;3.67;;;;;;;-144.47;49.04;53310.94;5078074;28;20020;-69
2022/04/19 06:07:10;;;;;;;16.08;3.65;;;;;;;-144.47;48.06;53328.81;5077489;28;20036;-69
2022/04/19 06:09:36;;;;;;;9.90;3.45;;;;;;;-144.47;48.59;53316.91;5083472;28;20028;-69
2022/04/19 06:12:01;;;;;;;7.10;3.50;;;;;;;-144.47;48.63;53340.75;5074309;28;20102;-69
2022/04/19 06:14:27;;;;;;;9.52;3.58;;;;;;;-144.47;48.41;53338.75;5062646;28;20105;-67
2022/04/19 06:16:53;;;;;;;7.47;3.53;;;;;;;-144.47;48.64;53328.81;5084268;28;20146;-69
2022/04/19 06:19:18;;;;;;;8.80;3.70;;;;;;;-144.47;48.62;53303.00;5076203;28;20237;-68
2022/04/19 06:21:45;;;;;;;8.43;3.20;;;;;;;-144.47;48.39;53340.75;5080460;28;20020;-67
2022/04/19 06:24:10;;;;;;;8.98;3.78;;;;;;;-144.47;48.35;53350.69;5076638;28;20029;-68
2022/04/19 06:26:35;;;;;;;8.05;3.67;;;;;;;-144.47;48.86;53289.09;5077410;28;20086;-66
2022/04/19 06:29:01;;;;;;;17.33;3.42;;;;;;;-144.47;48.75;53308.97;5077625;28;20044;-67
2022/04/19 06:31:27;;;;;;;12.63;3.47;;;;;;;-144.47;48.76;53305.00;5079279;28;20113;-68
2022/04/19 06:33:53;;;;;;;6.63;2.75;;;;;;;-144.47;49.01;53332.81;5088711;28;20162;-68
2022/04/19 06:36:19;;;;;;;12.55;4.55;;;;;;;-144.47;49.21;53328.81;5083320;28;20024;-67
2022/04/19 06:38:44;;;;;;;12.60;3.35;;;;;;;-144.47;48.66;53320.88;5086426;28;20119;-68
2022/04/19 06:41:11;;;;;;;11.63;3.53;;;;;;;-144.47;48.91;53336.78;5079194;28;20059;-70
2022/04/19 06:43:37;;;;;;;6.38;2.85;;;;;;;-144.47;48.65;53332.81;5087689;28;20127;-68
2022/04/19 06:46:02;;;;;;;7.78;3.03;;;;;;;-144.47;48.72;53364.59;5075130;28;20513;-68
2022/04/19 06:48:29;;;;;;;10.45;3.67;;;;;;;-144.47;48.75;53340.75;5088735;28;20341;-68
2022/04/19 06:50:54;;;;;;;9.82;3.60;;;;;;;-144.47;49.08;53328.81;5080362;28;20036;-69
2022/04/19 06:53:20;;;;;;;11.90;3.42;;;;;;;-144.47;48.92;53316.91;5085196;28;20032;-68
2022/04/19 06:55:45;;;;;;;6.57;3.00;;;;;;;-144.47;48.54;53316.91;5081403;28;20508;-68
2022/04/19 06:58:10;;;;;;;10.75;3.65;;;;;;;-144.47;48.78;53338.75;5078439;28;20017;-69
2022/04/19 07:00:35;;;;;;;9.82;3.20;;;;;;;-144.47;48.61;53322.88;5076834;28;20016;-66
2022/04/19 07:03:01;;;;;;;8.20;3.25;;;;;;;-144.47;48.49;53346.72;5081371;28;20039;-69
2022/04/19 07:05:26;;;;;;;7.80;3.83;;;;;;;-144.47;48.74;53334.78;5085758;28;20062;-71
2022/04/19 07:07:51;;;;;;;7.13;2.88;;;;;;;-144.47;48.42;53308.97;5083915;28;20043;-66
2022/04/19 07:10:16;;;;;;;9.82;3.45;;;;;;;-144.47;48.29;53348.69;5079246;28;20539;-68
2022/04/19 07:12:42;;;;;;;9.52;3.28;;;;;;;-144.47;48.39;53289.09;5081554;28;20016;-68
2022/04/19 07:15:08;;;;;;;8.07;3.35;;;;;;;-144.47;48.46;53372.53;5083632;28;20432;-68
2022/04/19 07:17:37;;;;;;;8.75;3.28;;;;;;;-144.47;48.51;53358.63;5083886;28;20048;-69
2022/04/19 07:28:14;;;;;;;13.25;4.68;;;;;;;-144.47;47.99;53348.69;5088552;28;20054;-66
2022/04/19 07:30:39;;;;;;;12.68;4.05;;;;;;;-144.47;47.72;53364.59;5087508;28;20024;-69
2022/04/19 07:33:05;;;;;;;11.77;3.30;;;;;;;-144.47;47.37;53366.56;5081001;28;20036;-69
2022/04/19 07:35:31;;;;;;;7.68;3.47;;;;;;;-144.47;47.07;53326.84;5079730;28;20113;-68
2022/04/19 07:37:56;;;;;;;9.80;3.67;;;;;;;-144.47;47.34;53368.56;5077192;28;20727;-70
2022/04/19 07:40:22;;;;;;;8.25;3.83;;;;;;;-144.47;47.08;53320.88;5086752;28;20104;-69
2022/04/19 07:42:47;;;;;;;8.15;3.55;;;;;;;-144.47;47.07;53308.97;5062563;28;20085;-69
2022/04/19 07:45:12;;;;;;;10.77;4.07;;;;;;;-144.47;47.04;53299.03;5085047;28;20122;-73
2022/04/19 07:47:38;;;;;;;10.55;4.05;;;;;;;-144.47;47.02;53324.84;5086845;28;20532;-71
2022/04/19 07:50:03;;;;;;;8.20;3.70;;;;;;;-144.47;47.46;53340.75;5080269;28;20047;-71
2022/04/19 07:52:29;;;;;;;9.75;4.25;;;;;;;-144.47;47.12;53305.00;5080008;28;20495;-68
2022/04/19 07:54:54;;;;;;;9.55;3.88;;;;;;;-144.47;46.60;53305.00;5082324;28;20469;-69
2022/04/19 07:57:21;;;;;;;13.82;3.80;;;;;;;-144.47;45.93;53279.16;5081644;28;20073;-68
2022/04/19 07:59:47;;;;;;;11.15;3.92;;;;;;;-144.47;46.02;53299.03;5087050;28;20429;-69
2022/04/19 08:02:13;;;;;;;8.65;3.85;;;;;;;-144.47;45.43;53305.00;5081031;28;20036;-70
2022/04/19 08:04:39;;;;;;;9.05;4.53;;;;;;;-144.47;45.75;53316.91;5083671;28;20040;-68
2022/04/19 08:07:04;;;;;;;10.07;4.25;;;;;;;-144.47;45.37;53314.91;5078799;28;20035;-68
2022/04/19 08:09:30;;;;;;;7.70;3.80;;;;;;;-144.47;45.16;53316.91;5086506;28;20036;-69
2022/04/19 08:11:55;;;;;;;14.45;4.32;;;;;;;-144.47;44.66;53322.88;5069891;28;20477;-69
2022/04/19 08:14:20;;;;;;;11.32;4.43;;;;;;;-144.47;45.12;53320.88;5083187;28;20237;-68
2022/04/19 08:16:46;;;;;;;17.75;3.83;;;;;;;-144.47;44.76;53285.13;5085816;28;20070;-68
2022/04/19 08:19:11;;;;;;;12.13;4.03;;;;;;;-144.47;45.13;53324.84;5080113;28;20016;-68
2022/04/19 08:21:36;;;;;;;11.85;4.68;;;;;;;-144.47;44.88;53281.16;5081360;28;20178;-67
2022/04/19 08:24:02;;;;;;;8.55;4.40;;;;;;;-144.47;44.49;53281.16;5080006;28;20157;-69
2022/04/19 08:26:28;;;;;;;12.25;4.22;;;;;;;-144.47;44.27;53322.88;5088670;28;20029;-66
2022/04/19 08:28:53;;;;;;;12.90;4.85;;;;;;;-144.47;42.96;53310.94;5088476;28;20189;-70
2022/04/19 08:31:18;;;;;;;8.82;4.43;;;;;;;-144.47;42.66;53279.16;5077812;28;20525;-69
2022/04/19 08:33:43;;;;;;;11.93;4.57;;;;;;;-144.47;41.80;53295.06;5066357;28;20035;-68
2022/04/19 08:36:09;;;;;;;13.45;4.95;;;;;;;-144.47;41.67;53332.81;5082306;28;20056;-68
2022/04/19 08:38:34;;;;;;;16.55;4.97;;;;;;;-144.47;42.04;53253.34;5077153;28;20086;-69
2022/04/19 08:41:00;;;;;;;9.55;4.03;;;;;;;-144.47;41.12;53305.00;5083403;28;20032;-70
2022/04/19 08:43:26;;;;;;;9.90;4.40;;;;;;;-144.47;41.30;53306.97;5084681;28;20131;-67
2022/04/19 08:45:52;;;;;;;10.85;4.45;;;;;;;-144.47;41.18;53261.28;5077316;28;20052;-68
2022/04/19 08:48:19;;;;;;;10.63;4.53;;;;;;;-144.47;41.24;53279.16;5084865;28;20067;-70
2022/04/19 08:50:46;;;;;;;22.67;4.82;;;;;;;-144.47;41.25;53299.03;5083456;28;20391;-70
2022/04/19 08:58:39;;;;;;;14.00;4.57;;;;;;;-144.47;39.33;53261.28;5080086;28;20487;-71
2022/04/19 09:01:05;;;;;;;10.65;4.28;;;;;;;-144.47;39.51;53253.34;5083666;28;20012;-70
2022/04/19 09:03:30;;;;;;;11.88;4.82;;;;;;;-144.47;39.40;53259.31;5080736;28;20022;-68
2022/04/19 09:05:56;;;;;;;12.55;4.63;;;;;;;-144.47;39.55;53275.19;5079932;28;20033;-68
2022/04/19 09:08:22;;;;;;;21.33;5.50;;;;;;;-144.47;39.53;53281.16;5079877;28;20040;-67
2022/04/19 09:10:47;;;;;;;10.65;4.78;;;;;;;-144.47;39.31;53305.00;5077195;28;20448;-70
2022/04/19 09:13:22;;;;;;;12.20;5.18;;;;;;;-144.47;38.94;53273.22;5077617;28;20042;-69
2022/04/19 09:15:48;;;;;;;10.55;4.95;;;;;;;-144.47;38.16;53283.13;5079078;28;20071;-70
2022/04/19 09:18:24;;;;;;;13.30;5.05;;;;;;;-144.47;38.42;53289.09;5073792;28;20407;-69
2022/04/19 09:20:54;;;;;;;14.25;5.30;;;;;;;-144.47;38.45;53243.41;5081926;28;20036;-68
2022/04/19 09:23:21;;;;;;;14.50;4.97;;;;;;;-144.47;38.97;53297.03;5086154;28;20453;-69
2022/04/19 09:25:49;;;;;;;12.20;5.72;;;;;;;-144.47;38.32;53303.00;5084209;28;20440;-68
2022/04/19 09:28:17;;;;;;;11.27;5.20;;;;;;;-144.47;38.24;53303.00;5051996;28;20112;-67
2022/04/19 09:30:42;;;;;;;11.60;5.10;;;;;;;-144.47;37.62;53283.13;5081431;28;20031;-67
2022/04/19 09:33:09;;;;;;;14.18;6.30;;;;;;;-144.47;37.38;53265.25;5074987;28;20024;-69
2022/04/19 09:35:47;;;;;;;15.23;5.97;;;;;;;-144.47;37.14;53267.25;5085457;28;20032;-68
2022/04/19 09:38:13;;;;;;;14.93;5.50;;;;;;;-144.47;37.36;53259.31;5083258;28;21015;-71
2022/04/19 09:40:42;;;;;;;17.08;5.13;;;;;;;-144.47;36.75;53241.44;5081957;28;20400;-67
2022/04/19 09:43:13;;;;;;;15.05;6.25;;;;;;;-144.47;37.00;53265.25;5081328;28;20024;-68
2022/04/19 09:46:05;;;;;;;14.00;5.40;;;;;;;-144.47;36.94;53259.31;5086827;28;20077;-68
2022/04/19 09:48:31;;;;;;;14.65;5.88;;;;;;;-144.47;36.62;53235.47;5079215;28;20462;-67
2022/04/19 09:51:13;;;;;;;12.77;5.03;;;;;;;-144.47;35.44;53259.31;5078542;28;20032;-70
2022/04/19 09:53:42;;;;;;;20.08;5.75;;;;;;;-144.47;35.93;53247.38;5072360;28;20055;-67
2022/04/19 09:56:09;;;;;;;14.45;5.13;;;;;;;-144.47;36.24;53293.06;5081304;28;20128;-69
2022/04/19 09:58:37;;;;;;;11.38;5.03;;;;;;;-144.47;36.17;53247.38;5080848;28;20036;-70
2022/04/19 10:01:03;;;;;;;11.52;5.20;;;;;;;-144.47;36.09;53261.28;5086134;28;20103;-67
2022/04/19 10:08:59;;;;;;;15.98;5.63;;;;;;;-144.47;35.54;53249.38;5084498;28;20047;-70
2022/04/19 10:11:28;;;;;;;14.00;5.03;;;;;;;-144.47;35.16;53265.25;5079587;28;20055;-67
2022/04/19 10:13:54;;;;;;;;;;;;;;;-144.47;34.50;53231.50;5087221;28;20445;-70
2022/04/19 10:16:21;;;;;;;13.43;5.72;;;;;;;-144.47;35.28;53295.06;5087753;28;19915;-69
2022/04/19 10:18:46;;;;;;;18.55;5.28;;;;;;;-144.47;35.61;53257.31;5088225;28;20099;-70
2022/04/19 10:21:22;;;;;;;11.25;5.15;;;;;;;-144.47;34.83;53267.25;5085075;28;20157;-68
2022/04/19 10:23:48;;;;;;;14.55;5.40;;;;;;;-144.47;35.06;53273.22;5068095;28;20085;-70
2022/04/19 10:26:21;;;;;;;19.67;5.05;;;;;;;-144.47;34.91;53253.34;5080253;28;20028;-68
2022/04/19 10:28:58;;;;;;;14.13;5.07;;;;;;;-144.47;35.13;53277.19;5076857;28;20032;-68
2022/04/19 10:31:30;;;;;;;14.27;6.05;;;;;;;-144.47;34.51;53235.47;5065221;28;20393;-69
2022/04/19 10:34:01;;;;;;;12.70;4.90;;;;;;;-144.47;34.64;53259.31;5085999;28;20027;-69
2022/04/19 10:36:40;;;;;;;12.25;5.07;;;;;;;-144.47;33.37;53265.25;5089578;28;20100;-67
2022/04/19 10:39:11;;;;;;;;;;;;;;;-144.47;32.66;53207.66;5086433;28;20032;-66
2022/04/19 10:41:56;;;;;;;14.73;4.43;;;;;;;-144.47;32.13;53253.34;5088123;28;19912;-67
2022/04/19 10:44:26;;;;;;;11.93;4.38;;;;;;;-144.47;32.25;53249.38;5076903;28;20060;-67
2022/04/19 10:47:11;;;;;;;11.50;5.03;;;;;;;-144.47;33.04;53243.41;5087856;28;20063;-67
2022/04/19 10:49:46;;;;;;;14.25;4.47;;;;;;;-144.47;32.78;53233.47;5088390;28;20036;-69
2022/04/19 10:52:39;;;;;;;10.63;4.43;;;;;;;-144.47;33.23;53227.53;5083318;28;20024;-70
2022/04/19 10:55:11;;;;;;;10.65;4.88;;;;;;;-144.47;33.27;53245.41;5078724;28;20047;-69
2022/04/19 10:58:06;;;;;;;18.63;4.40;;;;;;;-144.47;33.24;53247.38;5080264;28;20020;-67
2022/04/19 11:00:41;;;;;;;10.20;4.53;;;;;;;-144.47;33.28;53221.56;5085826;28;20036;-69
2022/04/19 11:03:08;;;;;;;16.98;5.00;;;;;;;-144.47;33.56;53261.28;5082243;28;20032;-69
2022/04/19 11:05:50;;;;;;;24.73;5.13;;;;;;;-144.47;33.27;53231.50;5085365;28;20064;-67
2022/04/19 11:08:31;;;;;;;9.52;4.72;;;;;;;-144.47;33.40;53215.59;5087476;28;20656;-68
2022/04/19 11:10:56;;;;;;;9.65;4.30;;;;;;;-144.47;33.24;53221.56;5078268;28;20047;-69
2022/04/19 11:13:35;;;;;;;9.90;4.53;;;;;;;-144.47;33.13;53241.44;5063400;28;20032;-68
2022/04/19 11:16:13;;;;;;;;;;;;;;;-144.47;33.32;53229.50;5080549;28;20020;-69
2022/04/19 11:18:39;;;;;;;9.65;4.70;;;;;;;-144.47;33.39;53205.66;5080485;28;19908;-71
2022/04/19 11:21:07;;;;;;;10.88;4.47;;;;;;;-144.47;33.32;53243.41;5080502;28;20035;-71
2022/04/19 11:23:48;;;;;;;10.37;4.70;;;;;;;-144.47;33.36;53225.53;5087433;28;20025;-70
2022/04/19 11:26:34;;;;;;;10.30;4.97;;;;;;;-144.47;33.20;53261.28;5087275;28;20040;-69
2022/04/19 11:29:09;;;;;;;13.80;4.60;;;;;;;-144.47;33.52;53249.38;5080598;28;20048;-69
2022/04/19 11:31:36;;;;;;;13.32;4.65;;;;;;;-144.47;33.51;53257.31;5085812;28;20517;-68
2022/04/19 11:34:13;;;;;;;14.60;4.90;;;;;;;-144.47;33.02;53205.66;5084316;28;20464;-70
2022/04/19 11:36:39;;;;;;;13.02;4.05;;;;;;;-144.47;32.97;53237.44;5087480;28;20453;-68
2022/04/19 11:39:04;;;;;;;19.13;4.95;;;;;;;-144.47;32.46;53239.44;5078797;28;20094;-70
2022/04/19 11:46:51;;;;;;;9.23;3.38;;;;;;;-144.47;31.36;53209.66;5079815;28;20214;-69
2022/04/19 11:49:16;;;;;;;10.88;3.13;;;;;;;-144.47;31.23;53205.66;5087586;28;20115;-69
2022/04/19 11:51:55;;;;;;;7.43;3.03;;;;;;;-144.47;31.07;53213.63;5085498;28;20024;-69
2022/04/19 11:54:23;;;;;;;5.93;3.20;;;;;;;-144.47;31.38;53243.41;5085257;28;20176;-69
2022/04/19 11:57:04;;;;;;;7.40;2.97;;;;;;;-144.47;31.59;53289.09;5087650;28;20442;-72
2022/04/19 11:59:37;;;;;;;8.15;3.47;;;;;;;-144.47;32.24;53241.44;5083732;28;20032;-71